createdAt,value
2022-10-17T00:00:47.658Z,7.25
2022-10-17T00:03:17.711Z,10.55
2022-10-17T00:05:48.667Z,7.15
2022-10-17T00:08:19.177Z,8.82
2022-10-17T00:10:58.374Z,7.43
2022-10-17T00:13:28.535Z,9.48
2022-10-17T00:15:59.322Z,7.63
2022-10-17T00:18:29.160Z,8.43
2022-10-17T00:20:59.085Z,7.43
2022-10-17T00:23:29.831Z,9.63
2022-10-17T00:26:01.215Z,8.10
2022-10-17T00:28:31.190Z,7.93
2022-10-17T00:31:06.148Z,7.43
2022-10-17T00:33:36.657Z,8.68
2022-10-17T00:36:09.669Z,10.35
2022-10-17T00:38:39.670Z,8.90
2022-10-17T00:41:10.308Z,8.85
2022-10-17T00:43:53.454Z,8.02
2022-10-17T00:46:24.006Z,10.57
2022-10-17T00:48:55.176Z,8.45
2022-10-17T00:51:34.094Z,8.48
2022-10-17T00:54:04.064Z,9.95
2022-10-17T00:56:34.142Z,11.98
2022-10-17T01:01:42.283Z,11.07
2022-10-17T01:04:12.282Z,9.98
2022-10-17T01:06:42.400Z,9.70
2022-10-17T01:09:12.472Z,10.80
2022-10-17T01:11:47.048Z,37.28
2022-10-17T01:14:56.125Z,44.70
2022-10-17T01:17:32.282Z,24.25
2022-10-17T01:20:30.988Z,24.45
2022-10-17T01:23:07.077Z,30.05
2022-10-17T01:25:46.508Z,34.67
2022-10-17T01:31:19.583Z,26.23
2022-10-17T01:34:14.616Z,21.98
2022-10-17T01:37:06.838Z,27.52
2022-10-17T01:39:50.474Z,27.63
2022-10-17T01:42:49.260Z,23.55
2022-10-17T01:45:27.011Z,23.00
2022-10-17T01:47:57.258Z,20.70
2022-10-17T01:50:32.621Z,23.65
2022-10-17T01:53:16.054Z,21.20
2022-10-17T01:55:47.177Z,24.48
2022-10-17T01:58:39.336Z,20.27
2022-10-17T02:01:09.732Z,24.40
2022-10-17T02:03:40.381Z,21.40
2022-10-17T02:06:10.246Z,20.50
2022-10-17T02:08:47.770Z,18.92
2022-10-17T02:11:25.527Z,18.63
2022-10-17T02:14:40.118Z,20.90
2022-10-17T02:17:34.330Z,18.45
2022-10-17T02:20:29.949Z,17.80
2022-10-17T02:23:15.293Z,19.17
2022-10-17T02:26:11.431Z,20.30
2022-10-17T02:28:46.563Z,20.75
2022-10-17T02:31:24.253Z,15.35
2022-10-17T02:33:58.491Z,17.13
2022-10-17T02:36:32.419Z,19.30
2022-10-17T02:39:03.560Z,15.50
2022-10-17T02:41:33.825Z,17.27
2022-10-17T02:44:03.932Z,15.57
2022-10-17T02:46:34.397Z,13.25
2022-10-17T02:49:29.688Z,13.27
2022-10-17T02:52:12.862Z,12.13
2022-10-17T02:55:00.077Z,14.77
2022-10-17T02:57:54.462Z,12.10
2022-10-17T03:00:24.517Z,14.63
2022-10-17T03:02:55.138Z,14.75
2022-10-17T03:05:26.872Z,15.25
2022-10-17T03:07:57.164Z,13.43
2022-10-17T03:10:27.836Z,12.38
2022-10-17T03:12:57.871Z,12.80
2022-10-17T03:15:28.439Z,14.35
2022-10-17T03:17:58.348Z,11.93
2022-10-17T03:20:28.281Z,13.52
2022-10-17T03:22:58.173Z,13.07
2022-10-17T03:25:28.505Z,16.77
2022-10-17T03:28:01.502Z,10.95
2022-10-17T03:30:31.601Z,12.93
2022-10-17T03:33:01.784Z,16.00
2022-10-17T03:35:31.792Z,14.25
2022-10-17T03:38:02.337Z,14.45
2022-10-17T03:40:33.236Z,13.63
2022-10-17T03:43:03.725Z,13.35
2022-10-17T03:45:33.646Z,16.60
2022-10-17T03:48:04.484Z,16.27
2022-10-17T03:50:34.447Z,12.65
2022-10-17T03:53:05.404Z,17.20
2022-10-17T03:55:38.105Z,14.52
2022-10-17T03:58:08.156Z,14.85
2022-10-17T04:00:38.618Z,18.58
2022-10-17T04:03:08.525Z,18.88
2022-10-17T04:05:39.711Z,21.13
2022-10-17T04:08:09.807Z,21.33
2022-10-17T04:11:02.370Z,24.25
2022-10-17T04:13:33.085Z,24.90
2022-10-17T04:16:04.631Z,23.90
2022-10-17T04:18:35.250Z,24.27
2022-10-17T04:21:06.912Z,29.15
2022-10-17T04:23:37.139Z,23.70
2022-10-17T04:26:16.901Z,26.30
2022-10-17T04:28:47.091Z,30.83
2022-10-17T04:31:18.202Z,26.05
2022-10-17T04:34:20.797Z,29.35
2022-10-17T04:36:52.939Z,28.80
2022-10-17T04:39:22.927Z,28.70
2022-10-17T04:41:53.126Z,29.38
2022-10-17T04:44:23.210Z,26.35
2022-10-17T04:46:55.389Z,28.58
2022-10-17T04:49:25.699Z,27.63
2022-10-17T04:52:01.270Z,27.40
2022-10-17T04:54:40.539Z,25.13
2022-10-17T04:57:12.718Z,24.10
2022-10-17T04:59:46.376Z,22.38
2022-10-17T05:02:26.176Z,25.65
2022-10-17T05:04:56.299Z,23.92
2022-10-17T05:07:26.752Z,25.98
2022-10-17T05:10:03.394Z,25.83
2022-10-17T05:12:34.763Z,26.27
2022-10-17T05:15:04.954Z,25.35
2022-10-17T05:17:35.901Z,20.00
2022-10-17T05:20:06.308Z,24.38
2022-10-17T05:22:39.765Z,22.73
2022-10-17T05:25:13.034Z,19.63
2022-10-17T05:27:43.153Z,18.05
2022-10-17T05:30:13.391Z,25.45
2022-10-17T05:32:43.956Z,23.02
2022-10-17T05:35:13.849Z,19.80
2022-10-17T05:37:44.315Z,18.08
2022-10-17T05:40:14.646Z,24.83
2022-10-17T05:42:52.033Z,20.20
2022-10-17T05:45:24.913Z,21.27
2022-10-17T05:47:55.118Z,25.75
2022-10-17T05:50:26.388Z,21.73
2022-10-17T05:53:06.177Z,21.00
2022-10-17T05:55:42.083Z,22.63
2022-10-17T05:58:21.729Z,20.63
2022-10-17T06:01:10.652Z,24.48
2022-10-17T06:03:42.716Z,20.60
2022-10-17T06:06:13.892Z,23.95
2022-10-17T06:08:46.344Z,22.17
2022-10-17T06:11:20.669Z,24.75
2022-10-17T06:13:50.610Z,22.50
2022-10-17T06:16:26.546Z,22.05
2022-10-17T06:18:57.287Z,26.35
2022-10-17T06:21:28.043Z,19.40
2022-10-17T06:24:09.799Z,22.42
2022-10-17T06:26:42.958Z,28.75
2022-10-17T06:29:16.168Z,22.23
2022-10-17T06:31:50.322Z,18.75
2022-10-17T06:34:22.225Z,19.80
2022-10-17T06:36:52.773Z,20.35
2022-10-17T06:39:23.341Z,22.35
2022-10-17T06:42:01.951Z,21.13
2022-10-17T06:45:00.931Z,16.73
2022-10-17T06:47:46.184Z,21.80
2022-10-17T06:50:42.185Z,23.70
2022-10-17T06:53:32.151Z,21.00
2022-10-17T06:56:20.576Z,21.58
2022-10-17T06:59:04.718Z,20.52
2022-10-17T07:01:40.698Z,18.85
2022-10-17T07:04:14.544Z,13.90
2022-10-17T07:06:45.073Z,23.70
2022-10-17T07:09:21.164Z,18.67
2022-10-17T07:11:51.126Z,19.50
2022-10-17T07:14:22.635Z,20.83
2022-10-17T07:16:53.397Z,17.70
2022-10-17T07:19:26.852Z,17.67
2022-10-17T07:21:56.804Z,12.98
2022-10-17T07:24:27.101Z,21.30
2022-10-17T07:27:05.286Z,15.82
2022-10-17T07:29:35.540Z,15.60
2022-10-17T07:32:21.206Z,16.88
2022-10-17T07:34:51.176Z,15.55
2022-10-17T07:37:21.398Z,18.33
2022-10-17T07:39:57.778Z,23.77
2022-10-17T07:42:29.695Z,17.65
2022-10-17T07:45:00.512Z,16.70
2022-10-17T07:47:32.719Z,15.50
2022-10-17T07:50:04.881Z,16.55
2022-10-17T07:52:35.112Z,10.00
2022-10-17T07:55:05.207Z,15.40
2022-10-17T07:57:35.848Z,12.85
2022-10-17T08:00:06.664Z,15.63
2022-10-17T08:02:42.476Z,11.55
2022-10-17T08:05:12.478Z,10.73
2022-10-17T08:07:43.134Z,15.88
2022-10-17T08:10:14.677Z,15.07
2022-10-17T08:12:45.387Z,18.25
2022-10-17T08:15:15.502Z,12.18
2022-10-17T08:17:46.555Z,12.48
2022-10-17T08:20:16.724Z,17.58
2022-10-17T08:23:08.181Z,14.02
2022-10-17T08:25:42.678Z,16.83
2022-10-17T08:28:12.673Z,14.82
2022-10-17T08:30:42.857Z,12.15
2022-10-17T08:33:13.614Z,13.75
2022-10-17T08:35:44.318Z,16.90
2022-10-17T08:38:15.277Z,11.52
2022-10-17T08:40:47.140Z,13.07
2022-10-17T08:43:33.286Z,13.40
2022-10-17T08:46:07.974Z,12.65
2022-10-17T08:48:46.284Z,14.65
2022-10-17T08:51:29.941Z,16.05
2022-10-17T08:54:13.871Z,19.05
2022-10-17T08:56:49.556Z,11.88
2022-10-17T08:59:31.281Z,14.10
2022-10-17T09:02:05.931Z,11.75
2022-10-17T09:05:04.599Z,14.77
2022-10-17T09:07:46.595Z,11.50
2022-10-17T09:10:39.620Z,13.20
2022-10-17T09:13:28.141Z,16.90
2022-10-17T09:16:16.598Z,20.88
2022-10-17T09:19:00.277Z,17.98
2022-10-17T09:24:09.509Z,26.83
2022-10-17T09:26:41.147Z,21.55
2022-10-17T09:29:43.690Z,26.27
2022-10-17T09:32:25.645Z,19.70
2022-10-17T09:34:55.920Z,16.45
2022-10-17T09:37:31.384Z,21.05
2022-10-17T09:40:01.389Z,19.70
2022-10-17T09:42:31.625Z,19.02
2022-10-17T09:45:25.910Z,17.65
2022-10-17T09:50:34.809Z,22.58
2022-10-17T09:53:29.054Z,18.23
2022-10-17T09:56:00.999Z,20.88
2022-10-17T09:58:59.866Z,19.23
2022-10-17T10:01:32.198Z,21.98
2022-10-17T10:04:18.570Z,25.42
2022-10-17T10:07:05.852Z,18.50
2022-10-17T10:09:38.132Z,26.25
2022-10-17T10:12:18.043Z,25.00
2022-10-17T10:14:48.681Z,19.17
2022-10-17T10:17:43.035Z,23.33
2022-10-17T10:20:36.857Z,33.97
2022-10-17T10:23:26.814Z,19.17
2022-10-17T10:26:01.389Z,18.23
2022-10-17T10:28:37.104Z,22.55
2022-10-17T10:31:10.448Z,19.55
2022-10-17T10:33:47.016Z,17.38
2022-10-17T10:36:22.962Z,18.48
2022-10-17T10:41:23.623Z,15.02
2022-10-17T10:43:53.804Z,15.45
2022-10-17T10:46:24.745Z,17.25
2022-10-17T10:48:59.723Z,22.58
2022-10-17T10:51:34.370Z,17.10
2022-10-17T10:54:13.313Z,19.38
2022-10-17T10:56:51.153Z,18.17
2022-10-17T10:59:41.581Z,17.67
2022-10-17T11:02:20.205Z,13.73
2022-10-17T11:05:11.834Z,21.58
2022-10-17T11:08:07.837Z,17.05
2022-10-17T11:11:19.115Z,15.07
2022-10-17T11:14:04.636Z,14.30
2022-10-17T11:17:00.727Z,13.98
2022-10-17T11:19:42.725Z,18.15
2022-10-17T11:22:31.573Z,19.15
2022-10-17T11:25:05.874Z,14.57
2022-10-17T11:27:39.290Z,14.75
2022-10-17T11:30:11.018Z,20.27
2022-10-17T11:32:45.904Z,14.43
2022-10-17T11:35:21.257Z,14.98
2022-10-17T11:38:11.690Z,15.50
2022-10-17T11:40:43.311Z,13.35
2022-10-17T11:43:16.584Z,17.17
2022-10-17T11:48:33.424Z,16.13
2022-10-17T11:54:29.297Z,14.05
2022-10-17T11:57:28.568Z,14.52
2022-10-17T12:00:37.926Z,14.65
2022-10-17T12:03:22.770Z,17.55
2022-10-17T12:06:00.980Z,13.35
2022-10-17T12:08:48.760Z,17.17
2022-10-17T12:11:43.084Z,17.85
2022-10-17T12:14:41.437Z,16.77
2022-10-17T12:17:31.798Z,14.65
2022-10-17T12:20:26.476Z,15.02
2022-10-17T12:23:02.673Z,16.20
2022-10-17T12:25:34.955Z,19.20
2022-10-17T12:28:08.105Z,19.08
2022-10-17T12:30:40.719Z,19.55
2022-10-17T12:33:24.398Z,16.00
2022-10-17T12:38:45.750Z,18.63
2022-10-17T12:41:19.270Z,19.23
2022-10-17T12:43:58.130Z,18.05
2022-10-17T12:46:49.841Z,17.50
2022-10-17T12:49:42.059Z,14.68
2022-10-17T12:52:33.381Z,23.10
2022-10-17T12:55:34.323Z,19.13
2022-10-17T12:58:24.299Z,17.52
2022-10-17T13:01:23.817Z,19.92
2022-10-17T13:03:49.408Z,21.55
2022-10-17T13:06:24.615Z,17.27
2022-10-17T13:09:20.672Z,18.48
2022-10-17T13:11:50.837Z,16.73
2022-10-17T13:14:22.126Z,19.08
2022-10-17T13:17:00.404Z,23.25
2022-10-17T13:19:44.107Z,19.92
2022-10-17T13:22:19.865Z,21.40
2022-10-17T13:24:50.711Z,19.80
2022-10-17T13:27:30.450Z,21.05
2022-10-17T13:30:02.906Z,17.73
2022-10-17T13:32:40.780Z,20.13
2022-10-17T13:35:11.147Z,20.02
2022-10-17T13:37:46.709Z,24.30
2022-10-17T13:40:40.789Z,21.83
2022-10-17T13:43:19.441Z,20.83
2022-10-17T13:46:02.212Z,22.70
2022-10-17T13:48:38.344Z,21.60
2022-10-17T13:51:11.161Z,23.33
2022-10-17T13:53:43.716Z,20.52
2022-10-17T13:56:30.854Z,20.47
2022-10-17T13:59:03.253Z,22.13
2022-10-17T14:01:33.864Z,20.52
2022-10-17T14:04:14.114Z,24.35
2022-10-17T14:06:52.120Z,24.95
2022-10-17T14:09:30.994Z,23.45
2022-10-17T14:12:17.746Z,18.13
2022-10-17T14:15:09.712Z,23.92
2022-10-17T14:17:41.216Z,21.00
2022-10-17T14:23:32.141Z,28.30
2022-10-17T14:26:19.453Z,24.90
2022-10-17T14:29:09.300Z,23.58
2022-10-17T14:31:39.348Z,22.73
2022-10-17T14:34:39.576Z,22.48
2022-10-17T14:37:25.729Z,21.08
2022-10-17T14:39:58.368Z,23.77
2022-10-17T14:42:28.405Z,26.67
2022-10-17T14:45:05.042Z,27.48
2022-10-17T14:47:50.515Z,25.88
2022-10-17T14:50:28.707Z,24.85
2022-10-17T14:53:28.758Z,20.95
2022-10-17T14:56:00.474Z,22.02
2022-10-17T14:58:34.496Z,22.88
2022-10-17T15:01:04.435Z,22.00
2022-10-17T15:03:34.436Z,23.77
2022-10-17T15:06:17.300Z,25.95
2022-10-17T15:08:48.322Z,22.60
2022-10-17T15:11:18.771Z,21.08
2022-10-17T15:13:48.839Z,21.73
2022-10-17T15:16:34.284Z,26.08
2022-10-17T15:19:04.754Z,26.02
2022-10-17T15:21:39.592Z,21.55
2022-10-17T15:24:13.874Z,22.40
2022-10-17T15:26:44.235Z,22.88
2022-10-17T15:29:17.657Z,21.50
2022-10-17T15:34:17.682Z,23.98
2022-10-17T15:36:52.505Z,21.25
2022-10-17T15:39:22.387Z,26.15
2022-10-17T15:41:52.511Z,26.02
2022-10-17T15:44:22.492Z,22.52
2022-10-17T15:46:52.762Z,29.52
2022-10-17T15:49:22.700Z,26.70
2022-10-17T15:51:55.095Z,33.28
2022-10-17T15:54:25.306Z,42.67
2022-10-17T15:56:56.148Z,37.22
2022-10-17T15:59:35.514Z,36.03
2022-10-17T16:02:05.566Z,29.52
2022-10-17T16:04:35.441Z,37.28
2022-10-17T16:07:05.381Z,37.55
2022-10-17T16:09:36.146Z,35.42
2022-10-17T16:12:09.103Z,36.65
2022-10-17T16:14:48.229Z,37.67
2022-10-17T16:17:19.407Z,41.28
2022-10-17T16:19:49.729Z,39.45
2022-10-17T16:22:23.061Z,34.00
2022-10-17T16:24:59.460Z,31.75
2022-10-17T16:27:29.342Z,30.60
2022-10-17T16:29:59.257Z,46.15
2022-10-17T16:32:29.419Z,46.38
2022-10-17T16:35:01.112Z,47.55
2022-10-17T16:37:31.083Z,44.97
2022-10-17T16:40:01.774Z,42.83
2022-10-17T16:42:31.820Z,46.25
2022-10-17T16:45:02.068Z,39.78
2022-10-17T16:47:32.130Z,37.95
2022-10-17T16:50:02.159Z,36.45
2022-10-17T16:52:32.355Z,48.83
2022-10-17T16:55:02.737Z,44.20
2022-10-17T16:57:32.670Z,42.67
2022-10-17T17:00:02.602Z,36.22
2022-10-17T17:02:32.782Z,43.80
2022-10-17T17:05:03.027Z,34.38
2022-10-17T17:07:33.245Z,39.47
2022-10-17T17:10:03.416Z,32.33
2022-10-17T17:12:37.233Z,36.38
2022-10-17T17:15:07.475Z,32.38
2022-10-17T17:17:49.668Z,35.35
2022-10-17T17:20:22.267Z,32.58
2022-10-17T17:22:53.423Z,28.75
2022-10-17T17:25:24.274Z,35.80
2022-10-17T17:27:54.137Z,37.00
2022-10-17T17:30:25.510Z,33.42
2022-10-17T17:32:55.532Z,35.13
2022-10-17T17:35:25.619Z,33.70
2022-10-17T17:37:55.560Z,33.50
2022-10-17T17:40:51.757Z,32.80
2022-10-17T17:43:21.614Z,30.45
2022-10-17T17:45:51.609Z,34.38
2022-10-17T17:48:21.544Z,32.10
2022-10-17T17:50:51.486Z,29.67
2022-10-17T17:53:21.431Z,29.55
2022-10-17T17:56:01.844Z,36.22
2022-10-17T17:58:32.022Z,33.83
2022-10-17T18:01:02.075Z,27.77
2022-10-17T18:03:32.028Z,30.67
2022-10-17T18:06:01.901Z,28.88
2022-10-17T18:08:31.792Z,27.67
2022-10-17T18:11:01.825Z,34.08
2022-10-17T18:13:31.848Z,29.15
2022-10-17T18:16:02.464Z,26.08
2022-10-17T18:18:32.441Z,31.20
2022-10-17T18:21:03.528Z,26.10
2022-10-17T18:23:33.485Z,28.35
2022-10-17T18:26:03.480Z,31.10
2022-10-17T18:28:36.541Z,28.33
2022-10-17T18:31:20.619Z,27.58
2022-10-17T18:33:52.316Z,28.85
2022-10-17T18:36:22.321Z,27.50
2022-10-17T18:38:52.246Z,27.60
2022-10-17T18:41:23.683Z,31.33
2022-10-17T18:43:53.972Z,30.15
2022-10-17T18:46:28.802Z,26.88
2022-10-17T18:48:58.741Z,24.58
2022-10-17T18:51:28.826Z,24.85
2022-10-17T18:53:59.808Z,27.95
2022-10-17T18:56:29.728Z,26.50
2022-10-17T18:58:59.682Z,27.38
2022-10-17T19:01:30.024Z,27.48
2022-10-17T19:04:00.774Z,26.10
2022-10-17T19:06:33.169Z,25.95
2022-10-17T19:09:04.794Z,25.92
2022-10-17T19:11:35.289Z,23.27
2022-10-17T19:14:09.335Z,25.60
2022-10-17T19:16:39.298Z,26.95
2022-10-17T19:19:27.985Z,25.48
2022-10-17T19:21:57.891Z,26.40
2022-10-17T19:24:28.794Z,23.30
2022-10-17T19:27:00.484Z,26.52
2022-10-17T19:29:32.900Z,28.13
2022-10-17T19:32:03.778Z,25.58
2022-10-17T19:34:33.741Z,27.85
2022-10-17T19:37:03.669Z,23.83
2022-10-17T19:39:34.237Z,22.02
2022-10-17T19:42:06.843Z,23.67
2022-10-17T19:44:38.008Z,22.75
2022-10-17T19:47:07.897Z,24.17
2022-10-17T19:49:37.984Z,24.30
2022-10-17T19:52:07.836Z,21.05
2022-10-17T19:54:40.036Z,23.88
2022-10-17T19:57:10.612Z,26.17
2022-10-17T19:59:40.630Z,23.05
2022-10-17T20:02:11.662Z,27.00
2022-10-17T20:04:49.708Z,22.50
2022-10-17T20:07:29.911Z,20.90
2022-10-17T20:09:59.783Z,25.08
2022-10-17T20:12:29.947Z,22.80
2022-10-17T20:15:00.430Z,23.50
2022-10-17T20:17:30.403Z,24.40
2022-10-17T20:20:02.345Z,21.52
2022-10-17T20:22:34.958Z,22.23
2022-10-17T20:25:04.906Z,23.88
2022-10-17T20:27:34.823Z,21.60
2022-10-17T20:30:11.323Z,21.20
2022-10-17T20:32:55.788Z,21.27
2022-10-17T20:35:25.787Z,22.80
2022-10-17T20:37:55.722Z,22.27
2022-10-17T20:40:40.737Z,22.70
2022-10-17T20:43:12.018Z,19.88
2022-10-17T20:45:51.476Z,21.25
2022-10-17T20:48:22.048Z,19.95
2022-10-17T20:50:55.124Z,19.92
2022-10-17T20:53:36.714Z,20.60
2022-10-17T20:56:11.227Z,22.90
2022-10-17T20:58:41.198Z,22.65
2022-10-17T21:01:12.569Z,21.48
2022-10-17T21:03:46.391Z,19.58
2022-10-17T21:06:17.158Z,20.42
2022-10-17T21:08:47.931Z,20.67
2022-10-17T21:11:23.500Z,17.33
2022-10-17T21:14:01.757Z,22.95
2022-10-17T21:16:33.494Z,18.77
2022-10-17T21:19:04.034Z,19.95
2022-10-17T21:21:38.594Z,18.90
2022-10-17T21:24:13.569Z,23.25
2022-10-17T21:26:44.762Z,25.65
2022-10-17T21:29:15.260Z,23.63
2022-10-17T21:31:46.585Z,22.85
2022-10-17T21:34:22.368Z,19.73
2022-10-17T21:36:52.549Z,20.30
2022-10-17T21:39:24.203Z,22.67
2022-10-17T21:41:55.023Z,18.40
2022-10-17T21:44:26.579Z,18.83
2022-10-17T21:46:56.926Z,15.32
2022-10-17T21:49:27.331Z,19.40
2022-10-17T21:51:58.468Z,21.02
2022-10-17T21:54:28.670Z,20.02
2022-10-17T21:56:58.738Z,18.98
2022-10-17T21:59:28.810Z,15.13
2022-10-17T22:01:59.338Z,19.23
2022-10-17T22:04:29.575Z,20.88
2022-10-17T22:06:59.437Z,24.40
2022-10-17T22:09:29.459Z,18.95
2022-10-17T22:11:59.435Z,14.85
2022-10-17T22:14:29.977Z,18.75
2022-10-17T22:17:00.193Z,18.92
2022-10-17T22:19:30.367Z,19.92
2022-10-17T22:22:00.875Z,18.02
2022-10-17T22:24:31.010Z,16.88
2022-10-17T22:27:01.933Z,17.67
2022-10-17T22:29:32.130Z,20.85
2022-10-17T22:32:02.583Z,16.27
2022-10-17T22:34:32.645Z,17.63
2022-10-17T22:37:05.453Z,18.17
2022-10-17T22:39:35.463Z,15.77
2022-10-17T22:42:05.800Z,21.50
2022-10-17T22:44:35.674Z,16.92
2022-10-17T22:47:05.643Z,16.58
2022-10-17T22:49:35.766Z,19.00
2022-10-17T22:52:05.816Z,17.75
2022-10-17T22:54:35.898Z,14.18
2022-10-17T22:57:05.838Z,18.17
2022-10-17T22:59:35.737Z,14.05
2022-10-17T23:02:05.598Z,15.07
2022-10-17T23:04:35.951Z,15.73
2022-10-17T23:07:12.394Z,17.40
2022-10-17T23:09:43.059Z,17.25
2022-10-17T23:12:13.499Z,16.35
2022-10-17T23:14:44.777Z,17.08
2022-10-17T23:17:15.340Z,13.50
2022-10-17T23:19:45.250Z,16.27
2022-10-17T23:22:15.206Z,15.98
2022-10-17T23:24:45.120Z,16.48
2022-10-17T23:27:15.113Z,13.60
2022-10-17T23:29:45.036Z,14.68
2022-10-17T23:32:14.998Z,14.68
2022-10-17T23:34:44.892Z,13.27
2022-10-17T23:37:14.856Z,15.52
2022-10-17T23:39:44.693Z,16.48
2022-10-17T23:42:14.550Z,15.77
2022-10-17T23:44:44.475Z,16.02
2022-10-17T23:47:14.320Z,13.18
2022-10-17T23:49:44.165Z,15.57
2022-10-17T23:52:14.001Z,12.57
2022-10-17T23:54:43.953Z,12.13
2022-10-17T23:57:13.852Z,14.02
2022-10-17T23:59:43.755Z,12.95
